地図

経路データ

SID SEASON NUMBER BASIN SUBBASIN NAME ISO_TIME NATURE LAT LON WMO_WIND WMO_PRES WMO_AGENCY TRACK_TYPE DIST2LAND LANDFALL IFLAG USA_AGENCY USA_ATCF_ID USA_LAT USA_LON USA_RECORD USA_STATUS USA_WIND USA_PRES USA_SSHS USA_R34_NE USA_R34_SE USA_R34_SW USA_R34_NW USA_R50_NE USA_R50_SE USA_R50_SW USA_R50_NW USA_R64_NE USA_R64_SE USA_R64_SW USA_R64_NW USA_POCI USA_ROCI USA_RMW USA_EYE TOKYO_LAT TOKYO_LON TOKYO_GRADE TOKYO_WIND TOKYO_PRES TOKYO_R50_DIR TOKYO_R50_LONG TOKYO_R50_SHORT TOKYO_R30_DIR TOKYO_R30_LONG TOKYO_R30_SHORT TOKYO_LAND CMA_LAT CMA_LON CMA_CAT CMA_WIND CMA_PRES HKO_LAT HKO_LON HKO_CAT HKO_WIND HKO_PRES NEWDELHI_LAT NEWDELHI_LON NEWDELHI_GRADE NEWDELHI_WIND NEWDELHI_PRES NEWDELHI_CI NEWDELHI_DP NEWDELHI_POCI REUNION_LAT REUNION_LON REUNION_TYPE REUNION_WIND REUNION_PRES REUNION_TNUM REUNION_CI REUNION_RMW REUNION_R34_NE REUNION_R34_SE REUNION_R34_SW REUNION_R34_NW REUNION_R50_NE REUNION_R50_SE REUNION_R50_SW REUNION_R50_NW REUNION_R64_NE REUNION_R64_SE REUNION_R64_SW REUNION_R64_NW BOM_LAT BOM_LON BOM_TYPE BOM_WIND BOM_PRES BOM_TNUM BOM_CI BOM_RMW BOM_R34_NE BOM_R34_SE BOM_R34_SW BOM_R34_NW BOM_R50_NE BOM_R50_SE BOM_R50_SW BOM_R50_NW BOM_R64_NE BOM_R64_SE BOM_R64_SW BOM_R64_NW BOM_ROCI BOM_POCI BOM_EYE BOM_POS_METHOD BOM_PRES_METHOD NADI_LAT NADI_LON NADI_CAT NADI_WIND NADI_PRES WELLINGTON_LAT WELLINGTON_LON WELLINGTON_WIND WELLINGTON_PRES DS824_LAT DS824_LON DS824_STAGE DS824_WIND DS824_PRES TD9636_LAT TD9636_LON TD9636_STAGE TD9636_WIND TD9636_PRES TD9635_LAT TD9635_LON TD9635_WIND TD9635_PRES TD9635_ROCI NEUMANN_LAT NEUMANN_LON NEUMANN_CLASS NEUMANN_WIND NEUMANN_PRES MLC_LAT MLC_LON MLC_CLASS MLC_WIND MLC_PRES USA_GUST BOM_GUST BOM_GUST_PER REUNION_GUST REUNION_GUST_PER USA_SEAHGT USA_SEARAD_NE USA_SEARAD_SE USA_SEARAD_SW USA_SEARAD_NW STORM_SPEED STORM_DIR
1894197N20089 1894 28 NI BB NOT_NAMED 1894-07-16 00:00:00 TS 19.8000 88.5000 main 186 162 _________O____ -1 19.8000 88.5000 TC 30 4 302
1894197N20089 1894 28 NI BB NOT_NAMED 1894-07-16 03:00:00 TS 19.8984 88.3300 main 162 138 _________PO___ -1 19.9476 88.2451 TC 31 19.8000 88.5000 1 5 303
1894197N20089 1894 28 NI BB NOT_NAMED 1894-07-16 06:00:00 TS 20.0471 88.0872 main 138 109 _________OP___ -1 20.1000 88.0000 TC 32 19.9678 88.2180 1 5 304
1894197N20089 1894 28 NI BB NOT_NAMED 1894-07-16 09:00:00 TS 20.2021 87.8551 main 109 85 _________PP___ -1 20.2575 87.7775 TC 33 20.1283 87.9585 1 5 307
1894197N20089 1894 28 NI BB NOT_NAMED 1894-07-16 12:00:00 TS 20.3373 87.6723 main 85 61 _________OP___ -1 20.4000 87.6000 TC 34 20.2746 87.7447 1 4 310
1894197N20089 1894 28 NI BB NOT_NAMED 1894-07-16 15:00:00 TS 20.4537 87.5387 main 56 56 _________PO___ -1 20.5075 87.4774 TC 36 20.4000 87.6000 2 3 318
1894197N20089 1894 28 NI BB NOT_NAMED 1894-07-16 18:00:00 TS 20.5508 87.4670 main 53 53 _________OP___ -1 20.6000 87.4000 TC 39 20.5017 87.5340 2 2 334
1894197N20089 1894 28 NI BB NOT_NAMED 1894-07-16 21:00:00 TS 20.6383 87.4482 main 43 41 _________PP___ -1 20.6848 87.3948 TC 42 20.5917 87.5015 2 2 334
1894197N20089 1894 28 NI BB NOT_NAMED 1894-07-17 00:00:00 TS 20.7429 87.3716 main 41 15 _________OP___ -1 20.8000 87.3000 TC 45 20.6859 87.4433 2 4 310
1894197N20089 1894 28 NI BB NOT_NAMED 1894-07-17 03:00:00 TS 20.8963 87.1264 main 15 0 _________PO___ -1 20.9927 86.9527 TC 45 20.8000 87.3000 3 7 301
1894197N20089 1894 28 NI BB NOT_NAMED 1894-07-17 06:00:00 TS 21.0871 86.7491 main 0 0 _________OP___ -1 21.2000 86.5000 TC 45 20.9741 86.9982 3 8 297
1894197N20089 1894 28 NI BB NOT_NAMED 1894-07-17 09:00:00 TS 21.2689 86.3530 main 0 0 _________PP___ -1 21.3724 86.1000 TC 45 21.1655 86.6060 3 8 294
1894197N20089 1894 28 NI BB NOT_NAMED 1894-07-17 12:00:00 TS 21.4245 85.9304 main 0 0 _________OP___ -1 21.5000 85.7000 TC 45 21.3490 86.1607 3 8 288
1894197N20089 1894 28 NI BB NOT_NAMED 1894-07-17 15:00:00 TS 21.5324 85.5037 main 0 0 _________PO___ -1 21.5648 85.3073 TC 41 21.5000 85.7000 3 8 282
1894197N20089 1894 28 NI BB NOT_NAMED 1894-07-17 18:00:00 TS 21.5949 85.0909 main 0 0 _________OP___ -1 21.6000 84.9000 TC 37 21.5898 85.2817 3 8 279
1894197N20089 1894 28 NI BB NOT_NAMED 1894-07-17 21:00:00 TS 21.6511 84.6572 main 0 0 _________PP___ -1 21.6574 84.4575 TC 33 21.6447 84.8569 3 8 277
1894197N20089 1894 28 NI BB NOT_NAMED 1894-07-18 00:00:00 TS 21.6886 84.2143 main 0 0 _________OP___ -1 21.7000 84.0000 TC 30 21.6772 84.4287 3 8 273
1894197N20089 1894 28 NI BB NOT_NAMED 1894-07-18 03:00:00 TS 21.7000 83.7712 main 0 0 _________PO___ -1 21.6999 83.5424 TC 30 21.7000 84.0000 1 8 272
1894197N20089 1894 28 NI BB NOT_NAMED 1894-07-18 06:00:00 TS 21.7138 83.3435 main 0 0 _________OP___ -1 21.7000 83.1000 TC 30 21.7276 83.5869 1 8 273
1894197N20089 1894 28 NI BB NOT_NAMED 1894-07-18 09:00:00 TS 21.7457 82.9398 main 0 0 _________PP___ -1 21.7422 82.7075 TC 30 21.7492 83.1721 1 8 275
1894197N20089 1894 28 NI BB NOT_NAMED 1894-07-18 12:00:00 TS 21.7856 82.5231 main 0 0 _________OP___ -1 21.8000 82.3000 TC 30 21.7713 82.7463 1 8 276
1894197N20089 1894 28 NI BB NOT_NAMED 1894-07-18 15:00:00 TS 21.8250 82.0575 main 0 0 _________PO___ -1 21.8500 81.8150 TC 30 21.8000 82.3000 1 9 275
1894197N20089 1894 28 NI BB NOT_NAMED 1894-07-18 18:00:00 TS 21.8738 81.5365 main 0 0 _________OP___ -1 21.9000 81.3000 TC 30 21.8476 81.7731 1 10 276
1894197N20089 1894 28 NI BB NOT_NAMED 1894-07-18 21:00:00 TS 21.9294 80.9940 main 0 0 _________PP___ -1 21.9577 80.7551 TC 30 21.9011 81.2329 1 10 276
1894197N20089 1894 28 NI BB NOT_NAMED 1894-07-19 00:00:00 TS 21.9769 80.5131 main 0 0 _________OP___ -1 22.0000 80.3000 TC 30 21.9539 80.7262 1 8 275
1894197N20089 1894 28 NI BB NOT_NAMED 1894-07-19 03:00:00 TS 21.9999 80.1775 main 0 0 _________PO___ -1 21.9997 80.0549 TC 30 22.0000 80.3000 1 5 274
1894197N20089 1894 28 NI BB NOT_NAMED 1894-07-19 06:00:00 TS 22.0155 79.9669 main 0 0 _________OP___ -1 22.0000 79.9000 TC 30 22.0311 80.0339 1 4 278
1894197N20089 1894 28 NI BB NOT_NAMED 1894-07-19 09:00:00 TS 22.0492 79.7811 main 0 0 _________PP___ -1 22.0424 79.7150 TC 30 22.0561 79.8473 1 4 282
1894197N20089 1894 28 NI BB NOT_NAMED 1894-07-19 12:00:00 TS 22.0891 79.5935 main 0 0 _________OP___ -1 22.1000 79.5000 TC 30 22.0781 79.6870 1 4 282
1894197N20089 1894 28 NI BB NOT_NAMED 1894-07-19 15:00:00 TS 22.1287 79.3613 main 0 0 _________PO___ -1 22.1575 79.2225 TC 30 22.1000 79.5000 1 5 278
1894197N20089 1894 28 NI BB NOT_NAMED 1894-07-19 18:00:00 TS 22.1584 79.0635 main 0 0 _________OP___ -1 22.2000 78.9000 TC 30 22.1167 79.2270 1 6 274
1894197N20089 1894 28 NI BB NOT_NAMED 1894-07-19 21:00:00 TS 22.1673 78.7448 main 0 0 _________PP___ -1 22.1999 78.5724 TC 30 22.1347 78.9172 1 6 272
1894197N20089 1894 28 NI BB NOT_NAMED 1894-07-20 00:00:00 TS 22.1802 78.3869 main 0 0 _________OP___ -1 22.2000 78.2000 TC 30 22.1604 78.5738 1 7 274
1894197N20089 1894 28 NI AS NOT_NAMED 1894-07-20 03:00:00 TS 22.2175 77.9787 main 0 0 _________PO___ -1 22.2351 77.7575 TC 30 22.2000 78.2000 1 8 277
1894197N20089 1894 28 NI AS NOT_NAMED 1894-07-20 06:00:00 TS 22.2785 77.5418 main 0 0 _________OP___ -1 22.3000 77.3000 TC 30 22.2569 77.7836 1 8 280
1894197N20089 1894 28 NI AS NOT_NAMED 1894-07-20 09:00:00 TS 22.3602 77.1101 main 0 0 _________PP___ -1 22.3924 76.8775 TC 30 22.3280 77.3427 1 8 283
1894197N20089 1894 28 NI AS NOT_NAMED 1894-07-20 12:00:00 TS 22.4550 76.7027 main 0 0 _________OP___ -1 22.5000 76.5000 TC 30 22.4100 76.9054 1 7 285
1894197N20089 1894 28 NI AS NOT_NAMED 1894-07-20 15:00:00 TS 22.5499 76.3425 main 0 0 _________PO___ -1 22.5999 76.1849 TC 30 22.5000 76.5000 1 6 287
1894197N20089 1894 28 NI AS NOT_NAMED 1894-07-20 18:00:00 TS 22.6441 76.0319 main 0 0 _________OP___ -1 22.7000 75.9000 TC 30 22.5882 76.1639 1 6 288
1894197N20089 1894 28 NI AS NOT_NAMED 1894-07-20 21:00:00 TS 22.7384 75.7311 main 0 0 _________PP___ -1 22.7924 75.5999 TC 30 22.6843 75.8622 1 6 290
1894197N20089 1894 28 NI AS NOT_NAMED 1894-07-21 00:00:00 TS 22.8441 75.4397 main 0 0 _________OP___ -1 22.9000 75.3000 TC 30 22.7883 75.5795 1 6 294
1894197N20089 1894 28 NI AS NOT_NAMED 1894-07-21 03:00:00 TS 22.9750 75.1500 main 0 0 _________PO___ -1 23.0499 75.0000 TC 30 22.9000 75.3000 1 6 296
1894197N20089 1894 28 NI AS NOT_NAMED 1894-07-21 06:00:00 TS 23.1109 74.8480 main 0 0 _________OP___ -1 23.2000 74.7000 TC 30 23.0218 74.9959 1 6 294
1894197N20089 1894 28 NI AS NOT_NAMED 1894-07-21 09:00:00 TS 23.2287 74.5425 main 0 0 _________PP___ -1 23.3075 74.3924 TC 30 23.1499 74.6925 1 6 292
1894197N20089 1894 28 NI AS NOT_NAMED 1894-07-21 12:00:00 TS 23.3390 74.2464 main 0 0 _________OP___ -1 23.4000 74.1000 TC 30 23.2780 74.3928 1 6 293
1894197N20089 1894 28 NI AS NOT_NAMED 1894-07-21 15:00:00 TS 23.4499 73.9750 main 0 0 _________PO___ -1 23.4999 73.8499 TC 30 23.4000 74.1000 1 5 294
1894197N20089 1894 28 NI AS NOT_NAMED 1894-07-21 18:00:00 TS 23.5513 73.7168 main 0 0 _________OP___ -1 23.6000 73.6000 TC 30 23.5027 73.8337 1 5 292
1894197N20089 1894 28 NI AS NOT_NAMED 1894-07-21 21:00:00 TS 23.6459 73.4434 main 0 0 _________PP___ -1 23.6924 73.3149 TC 30 23.5994 73.5719 1 6 291
1894197N20089 1894 28 NI AS NOT_NAMED 1894-07-22 00:00:00 TS 23.7482 73.1496 main 0 0 _________OP___ -1 23.8000 73.0000 TC 30 23.6964 73.2993 1 6 292
1894197N20089 1894 28 NI AS NOT_NAMED 1894-07-22 03:00:00 TS 23.8750 72.8325 main 0 0 _________PO___ -1 23.9499 72.6650 TC 30 23.8000 73.0000 1 7 293
1894197N20089 1894 28 NI AS NOT_NAMED 1894-07-22 06:00:00 TS 24.0131 72.4729 main 0 0 _________OP___ -1 24.1000 72.3000 TC 30 23.9261 72.6458 1 7 291
1894197N20089 1894 28 NI AS NOT_NAMED 1894-07-22 09:00:00 TS 24.1326 72.0789 main 0 0 _________PP___ -1 24.2076 71.8924 TC 30 24.0577 72.2653 1 8 288
1894197N20089 1894 28 NI AS NOT_NAMED 1894-07-22 12:00:00 TS 24.2427 71.6885 main 0 0 _________OP___ -1 24.3000 71.5000 TC 30 24.1855 71.8771 1 7 288
1894197N20089 1894 28 NI AS NOT_NAMED 1894-07-22 15:00:00 TS 24.3536 71.3462 main 0 0 _________PO___ -1 24.4073 71.1925 TC 30 24.3000 71.5000 1 6 288
1894197N20089 1894 28 NI AS NOT_NAMED 1894-07-22 18:00:00 TS 24.4398 71.0421 main 0 0 _________OP___ -1 24.5000 70.9000 TC 30 24.3947 71.1486 1 6 285
1894197N20089 1894 28 NI AS NOT_NAMED 1894-07-22 21:00:00 TS 24.5077 70.7180 main 0 0 _________PP___ -1 24.5603 70.5650 TC 30 24.4726 70.8199 1 6 282
1894197N20089 1894 28 NI AS NOT_NAMED 1894-07-23 00:00:00 TS 24.5595 70.4042 main 0 0 _________OP___ -1 24.6000 70.2000 TC 30 24.5393 70.5062 1 5 281
1894197N20089 1894 28 NI AS NOT_NAMED 1894-07-23 03:00:00 NR 24.6000 70.2000 main 0 __________O___ -1 TC 24.6000 70.2000 1 4 282

IBTrACS Databaseについて

本データベースは、米国NOAAが公開する1842年以降の世界の熱帯低気圧のベストトラックデータアーカイブInternational Best Track Archive for Climate Stewardship (IBTrACS)を、ウェブで閲覧しやすい形式に変換したものです。

最終更新日:2021-10-08